createdAt,value
2022-11-07T00:01:21.407Z,25.10
2022-11-07T00:06:17.645Z,25.17
2022-11-07T00:11:13.850Z,24.85
2022-11-07T00:16:11.153Z,24.90
2022-11-07T00:21:08.938Z,22.52
2022-11-07T00:26:06.304Z,21.20
2022-11-07T00:31:03.215Z,20.52
2022-11-07T00:35:59.783Z,21.27
2022-11-07T00:41:03.843Z,20.58
2022-11-07T00:46:01.484Z,19.92
2022-11-07T00:50:58.036Z,21.17
2022-11-07T00:55:54.252Z,18.75
2022-11-07T01:00:50.444Z,19.25
2022-11-07T01:05:59.861Z,17.35
2022-11-07T01:10:56.474Z,16.08
2022-11-07T01:15:52.760Z,18.25
2022-11-07T01:20:50.034Z,16.42
2022-11-07T01:25:46.210Z,16.70
2022-11-07T01:30:43.334Z,17.08
2022-11-07T01:35:39.697Z,16.50
2022-11-07T01:41:00.309Z,16.10
2022-11-07T01:45:56.510Z,17.33
2022-11-07T01:50:52.716Z,18.27
2022-11-07T01:55:48.922Z,18.20
2022-11-07T02:00:45.136Z,17.98
2022-11-07T02:05:43.759Z,18.52
2022-11-07T02:10:40.709Z,17.52
2022-11-07T02:15:37.070Z,18.00
2022-11-07T02:20:33.296Z,17.10
2022-11-07T02:25:29.619Z,18.17
2022-11-07T02:30:27.528Z,18.20
2022-11-07T02:35:39.061Z,16.92
2022-11-07T02:40:35.341Z,18.52
2022-11-07T02:45:32.960Z,17.80
2022-11-07T02:50:29.210Z,19.88
2022-11-07T02:55:25.501Z,16.45
2022-11-07T03:00:21.738Z,17.55
2022-11-07T03:05:19.145Z,17.08
2022-11-07T03:10:15.807Z,17.73
2022-11-07T03:15:13.074Z,15.25
2022-11-07T03:20:09.544Z,16.52
2022-11-07T03:25:06.314Z,16.83
2022-11-07T03:30:02.535Z,17.35
2022-11-07T03:34:58.766Z,18.13
2022-11-07T03:39:55.159Z,17.17
2022-11-07T03:44:51.393Z,17.90
2022-11-07T03:49:47.695Z,17.00
2022-11-07T03:54:43.927Z,18.77
2022-11-07T03:59:40.125Z,17.48
2022-11-07T04:04:36.359Z,19.33
2022-11-07T04:09:32.653Z,18.02
2022-11-07T04:14:47.939Z,18.70
2022-11-07T04:19:44.438Z,19.75
2022-11-07T04:24:45.511Z,20.92
2022-11-07T04:29:42.360Z,20.15
2022-11-07T04:34:38.571Z,21.70
2022-11-07T04:39:34.813Z,19.45
2022-11-07T04:44:31.013Z,22.40
2022-11-07T04:49:27.250Z,22.73
2022-11-07T04:54:23.574Z,22.92
2022-11-07T04:59:19.847Z,23.38
2022-11-07T05:04:16.029Z,27.33
2022-11-07T05:09:16.822Z,27.75
2022-11-07T05:14:13.449Z,25.75
2022-11-07T05:19:15.380Z,25.17
2022-11-07T05:24:12.052Z,24.70
2022-11-07T05:29:10.290Z,24.88
2022-11-07T05:34:08.700Z,24.13
2022-11-07T05:39:08.486Z,24.63
2022-11-07T05:44:04.847Z,27.48
2022-11-07T05:49:01.471Z,27.55
2022-11-07T05:53:57.789Z,30.25
2022-11-07T05:58:53.993Z,31.10
2022-11-07T06:03:50.206Z,34.97
2022-11-07T06:08:46.496Z,34.03
2022-11-07T06:13:42.709Z,34.30
2022-11-07T06:18:41.766Z,33.67
2022-11-07T06:23:38.257Z,33.83
2022-11-07T06:28:34.891Z,35.03
2022-11-07T06:33:31.722Z,34.08
2022-11-07T06:38:27.958Z,34.88
2022-11-07T06:43:24.211Z,35.28
2022-11-07T06:48:20.567Z,36.30
2022-11-07T06:53:16.979Z,35.85
2022-11-07T06:58:13.434Z,37.05
2022-11-07T07:03:10.641Z,40.15
2022-11-07T07:08:07.604Z,36.10
2022-11-07T07:13:03.889Z,42.22
2022-11-07T07:18:03.488Z,35.40
2022-11-07T07:23:04.558Z,34.58
2022-11-07T07:28:02.081Z,30.20
2022-11-07T07:32:58.258Z,30.15
2022-11-07T07:37:54.589Z,28.98
2022-11-07T07:42:50.800Z,29.98
2022-11-07T07:47:47.062Z,31.92
2022-11-07T07:52:43.790Z,30.27
2022-11-07T07:57:41.001Z,31.55
2022-11-07T08:02:37.304Z,33.25
2022-11-07T08:07:33.650Z,27.75
2022-11-07T08:12:29.975Z,24.55
2022-11-07T08:17:26.251Z,25.73
2022-11-07T08:22:22.522Z,25.42
2022-11-07T08:27:18.773Z,23.40
2022-11-07T08:32:15.396Z,24.50
2022-11-07T08:37:11.703Z,22.67
2022-11-07T08:42:08.016Z,20.80
2022-11-07T08:47:08.625Z,21.45
2022-11-07T08:52:05.126Z,21.48
2022-11-07T08:57:01.402Z,21.98
2022-11-07T09:02:28.344Z,20.30
2022-11-07T09:07:13.862Z,19.58
2022-11-07T09:12:11.241Z,21.13
2022-11-07T09:17:07.613Z,21.20
2022-11-07T09:22:03.823Z,21.08
2022-11-07T09:27:00.003Z,18.15
2022-11-07T09:31:56.254Z,17.73
2022-11-07T09:36:52.556Z,16.05
2022-11-07T09:41:56.182Z,17.27
2022-11-07T09:47:06.840Z,16.15
2022-11-07T09:52:11.973Z,14.75
2022-11-07T09:57:14.310Z,13.38
2022-11-07T10:02:13.452Z,11.48
2022-11-07T10:07:29.969Z,14.02
2022-11-07T10:12:55.606Z,14.32
2022-11-07T10:18:02.078Z,14.43
2022-11-07T10:22:58.281Z,15.32
2022-11-07T10:28:01.501Z,14.63
2022-11-07T10:32:58.254Z,13.80
2022-11-07T10:37:55.585Z,15.70
2022-11-07T10:42:53.440Z,15.55
2022-11-07T10:48:00.257Z,14.88
2022-11-07T10:53:00.389Z,14.38
2022-11-07T10:57:59.582Z,13.95
2022-11-07T11:02:56.293Z,15.27
2022-11-07T11:07:54.719Z,12.85
2022-11-07T11:12:50.976Z,14.32
2022-11-07T11:17:55.433Z,13.15
2022-11-07T11:22:52.518Z,13.73
2022-11-07T11:27:50.288Z,14.57
2022-11-07T11:32:56.295Z,15.02
2022-11-07T11:37:58.442Z,14.77
2022-11-07T11:42:58.944Z,14.93
2022-11-07T11:48:18.266Z,14.43
2022-11-07T11:53:16.472Z,15.00
2022-11-07T11:58:27.564Z,16.25
2022-11-07T12:03:37.508Z,16.48
2022-11-07T12:08:56.037Z,15.77
2022-11-07T12:14:00.727Z,14.20
2022-11-07T12:19:02.876Z,15.05
2022-11-07T12:24:17.399Z,16.27
2022-11-07T12:29:27.067Z,16.73
2022-11-07T12:34:27.906Z,15.10
2022-11-07T12:39:24.115Z,16.83
2022-11-07T12:44:29.444Z,15.98
2022-11-07T12:49:28.530Z,16.65
2022-11-07T12:54:37.255Z,16.20
2022-11-07T12:59:35.990Z,16.02
2022-11-07T13:04:50.800Z,16.00
2022-11-07T13:09:54.850Z,15.85
2022-11-07T13:14:51.279Z,15.38
2022-11-07T13:20:00.851Z,17.27
2022-11-07T13:25:15.097Z,17.08
2022-11-07T13:30:12.911Z,17.00
2022-11-07T13:35:10.669Z,17.35
2022-11-07T13:40:20.464Z,17.80
2022-11-07T13:45:36.963Z,18.25
2022-11-07T13:50:41.440Z,20.33
2022-11-07T13:55:51.100Z,27.73
2022-11-07T14:00:47.439Z,34.97
2022-11-07T14:05:47.168Z,40.35
2022-11-07T14:10:47.617Z,38.35
2022-11-07T14:15:47.665Z,40.30
2022-11-07T14:20:47.547Z,42.78
2022-11-07T14:25:43.900Z,42.00
2022-11-07T14:30:41.214Z,44.80
2022-11-07T14:35:43.718Z,43.97
2022-11-07T14:40:40.931Z,45.47
2022-11-07T14:46:10.852Z,42.55
2022-11-07T14:50:53.554Z,38.85
2022-11-07T14:55:53.717Z,44.55
2022-11-07T15:01:13.204Z,42.22
2022-11-07T15:06:20.350Z,42.90
2022-11-07T15:11:30.929Z,46.45
2022-11-07T15:16:46.301Z,46.13
2022-11-07T15:21:51.806Z,38.78
2022-11-07T15:26:57.710Z,41.83
2022-11-07T15:31:54.065Z,42.58
2022-11-07T15:36:50.390Z,47.35
2022-11-07T15:41:46.592Z,43.80
2022-11-07T15:46:42.858Z,41.15
2022-11-07T15:51:39.114Z,37.92
2022-11-07T15:56:35.384Z,37.70
2022-11-07T16:01:31.706Z,34.25
2022-11-07T16:06:30.462Z,37.25
2022-11-07T16:11:27.038Z,38.80
2022-11-07T16:16:24.152Z,35.30
2022-11-07T16:21:20.690Z,33.35
2022-11-07T16:26:19.815Z,35.15
2022-11-07T16:31:16.030Z,30.83
2022-11-07T16:36:25.175Z,29.63
2022-11-07T16:41:22.384Z,29.95
2022-11-07T16:46:19.730Z,32.53
2022-11-07T16:51:17.257Z,30.95
2022-11-07T16:56:24.560Z,31.02
2022-11-07T17:01:21.833Z,29.85
2022-11-07T17:06:24.725Z,30.65
2022-11-07T17:11:21.371Z,28.38
2022-11-07T17:16:25.856Z,29.52
2022-11-07T17:21:29.082Z,28.70
2022-11-07T17:26:27.922Z,29.42
2022-11-07T17:31:24.479Z,28.55
2022-11-07T17:36:20.713Z,27.98
2022-11-07T17:41:17.299Z,28.00
2022-11-07T17:46:20.522Z,30.27
2022-11-07T17:51:16.814Z,30.65
2022-11-07T17:56:17.295Z,33.17
2022-11-07T18:01:14.774Z,34.17
2022-11-07T18:06:11.079Z,39.83
2022-11-07T18:11:07.394Z,59.50
2022-11-07T18:16:23.448Z,76.30
2022-11-07T18:21:19.774Z,87.40
2022-11-07T18:26:20.607Z,96.18
2022-11-07T18:31:18.768Z,101.43
2022-11-07T18:36:17.132Z,89.05
2022-11-07T18:41:14.703Z,89.50
2022-11-07T18:46:14.829Z,82.60
2022-11-07T18:51:12.105Z,84.95
2022-11-07T18:56:08.832Z,75.57
2022-11-07T19:01:06.462Z,67.88
2022-11-07T19:06:10.451Z,57.90
2022-11-07T19:11:08.811Z,50.42
2022-11-07T19:16:06.327Z,50.20
2022-11-07T19:21:03.757Z,48.97
2022-11-07T19:26:00.049Z,47.00
2022-11-07T19:30:56.241Z,42.33
2022-11-07T19:36:00.441Z,41.85
2022-11-07T19:40:56.962Z,42.25
2022-11-07T19:45:53.233Z,40.30
2022-11-07T19:50:49.483Z,44.42
2022-11-07T19:55:45.694Z,50.83
2022-11-07T20:00:42.133Z,53.00
2022-11-07T20:05:39.159Z,63.40
2022-11-07T20:10:35.384Z,77.10
2022-11-07T20:15:31.684Z,78.25
2022-11-07T20:20:27.901Z,82.00
2022-11-07T20:25:24.163Z,88.70
2022-11-07T20:30:20.402Z,94.60
2022-11-07T20:35:16.758Z,91.15
2022-11-07T20:40:14.317Z,92.97
2022-11-07T20:45:13.104Z,92.18
2022-11-07T20:50:09.644Z,100.18
2022-11-07T20:55:06.313Z,107.30
2022-11-07T21:00:03.137Z,105.05
2022-11-07T21:10:15.609Z,116.03
2022-11-07T21:15:12.117Z,107.28
2022-11-07T21:20:10.079Z,100.47
2022-11-07T21:25:06.766Z,98.60
2022-11-07T21:30:04.641Z,100.82
2022-11-07T21:35:01.150Z,97.72
2022-11-07T21:39:57.476Z,98.78
2022-11-07T21:44:53.727Z,101.47
2022-11-07T21:49:49.993Z,98.78
2022-11-07T21:54:46.395Z,102.50
2022-11-07T21:59:42.607Z,101.60
2022-11-07T22:04:38.794Z,99.03
2022-11-07T22:09:34.998Z,99.82
2022-11-07T22:14:31.294Z,97.25
2022-11-07T22:19:27.479Z,95.05
2022-11-07T22:24:26.998Z,81.30
2022-11-07T22:29:23.216Z,82.60
2022-11-07T22:34:19.426Z,73.78
2022-11-07T22:39:15.649Z,70.97
2022-11-07T22:44:11.933Z,69.28
2022-11-07T22:49:08.200Z,58.55
2022-11-07T22:54:05.780Z,56.17
2022-11-07T22:59:02.204Z,57.08
2022-11-07T23:03:58.785Z,52.15
2022-11-07T23:08:57.581Z,47.22
2022-11-07T23:14:00.401Z,43.00
2022-11-07T23:18:58.070Z,37.80
2022-11-07T23:23:55.225Z,35.25
2022-11-07T23:28:51.724Z,34.75
2022-11-07T23:33:47.911Z,35.67
2022-11-07T23:38:44.601Z,34.13
2022-11-07T23:43:42.783Z,36.75
2022-11-07T23:48:57.476Z,38.13
2022-11-07T23:54:12.505Z,36.60
2022-11-07T23:59:27.456Z,31.73
